createdAt,value
2023-02-20T00:00:44.999Z,3.15
2023-02-20T00:03:14.140Z,2.72
2023-02-20T00:05:40.512Z,3.40
2023-02-20T00:08:06.937Z,3.05
2023-02-20T00:10:33.427Z,2.92
2023-02-20T00:13:00.086Z,3.28
2023-02-20T00:15:26.566Z,3.22
2023-02-20T00:17:53.055Z,3.70
2023-02-20T00:20:21.070Z,3.03
2023-02-20T00:22:48.565Z,3.55
2023-02-20T00:25:16.073Z,3.05
2023-02-20T00:30:11.622Z,2.88
2023-02-20T00:32:38.249Z,3.88
2023-02-20T00:35:04.892Z,3.28
2023-02-20T00:37:31.294Z,3.10
2023-02-20T00:39:57.753Z,3.60
2023-02-20T00:42:24.112Z,3.30
2023-02-20T00:44:50.562Z,3.67
2023-02-20T00:47:16.935Z,3.40
2023-02-20T00:49:43.357Z,4.22
2023-02-20T00:52:14.961Z,4.82
2023-02-20T00:54:41.852Z,4.78
2023-02-20T00:57:08.342Z,4.55
2023-02-20T00:59:34.791Z,4.95
2023-02-20T01:02:01.314Z,4.72
2023-02-20T01:04:27.790Z,4.95
2023-02-20T01:06:54.170Z,4.68
2023-02-20T01:09:20.565Z,4.63
2023-02-20T01:11:48.204Z,5.18
2023-02-20T01:14:14.839Z,4.65
2023-02-20T01:16:45.770Z,4.57
2023-02-20T01:19:12.219Z,4.70
2023-02-20T01:21:38.598Z,5.22
2023-02-20T01:24:05.004Z,4.80
2023-02-20T01:26:31.369Z,5.03
2023-02-20T01:28:57.756Z,5.35
2023-02-20T01:31:24.218Z,5.25
2023-02-20T01:33:50.668Z,5.15
2023-02-20T01:36:17.085Z,4.70
2023-02-20T01:38:43.497Z,4.75
2023-02-20T01:41:11.029Z,4.57
2023-02-20T01:43:37.432Z,5.10
2023-02-20T01:46:22.588Z,4.85
2023-02-20T01:48:49.811Z,5.13
2023-02-20T01:51:16.356Z,5.07
2023-02-20T01:53:43.390Z,4.85
2023-02-20T01:56:10.368Z,4.97
2023-02-20T01:58:39.716Z,5.68
2023-02-20T02:01:06.523Z,5.30
2023-02-20T02:03:35.675Z,5.20
2023-02-20T02:06:04.952Z,5.40
2023-02-20T02:08:31.969Z,5.32
2023-02-20T02:11:02.123Z,5.90
2023-02-20T02:13:33.632Z,5.30
2023-02-20T02:16:20.278Z,5.75
2023-02-20T02:18:55.539Z,6.05
2023-02-20T02:21:35.954Z,7.60
2023-02-20T02:24:29.463Z,7.32
2023-02-20T02:27:08.298Z,6.63
2023-02-20T02:29:58.055Z,6.82
2023-02-20T02:32:46.516Z,6.85
2023-02-20T02:35:15.860Z,6.72
2023-02-20T02:37:43.023Z,6.00
2023-02-20T02:40:18.313Z,8.32
2023-02-20T02:43:02.944Z,8.55
2023-02-20T02:45:38.986Z,8.40
2023-02-20T02:48:20.248Z,8.55
2023-02-20T02:50:48.009Z,7.32
2023-02-20T02:53:15.197Z,7.03
2023-02-20T02:55:41.647Z,7.10
2023-02-20T02:58:08.318Z,8.23
2023-02-20T03:00:43.775Z,7.43
2023-02-20T03:03:13.263Z,7.60
2023-02-20T03:05:48.357Z,6.57
2023-02-20T03:08:31.007Z,8.98
2023-02-20T03:11:08.595Z,8.43
2023-02-20T03:14:00.163Z,7.40
2023-02-20T03:16:30.508Z,7.90
2023-02-20T03:18:59.625Z,7.20
2023-02-20T03:21:26.697Z,7.18
2023-02-20T03:23:57.367Z,9.88
2023-02-20T03:26:29.385Z,8.13
2023-02-20T03:29:01.057Z,8.00
2023-02-20T03:31:31.655Z,8.73
2023-02-20T03:34:35.612Z,8.25
2023-02-20T03:40:08.174Z,7.43
2023-02-20T03:42:55.780Z,7.30
2023-02-20T03:45:32.522Z,7.30
2023-02-20T03:50:25.765Z,8.10
2023-02-20T03:52:54.864Z,7.80
2023-02-20T03:55:21.389Z,9.07
2023-02-20T03:57:52.962Z,8.75
2023-02-20T04:00:24.859Z,8.63
2023-02-20T04:02:57.034Z,8.55
2023-02-20T04:05:29.237Z,8.07
2023-02-20T04:08:04.148Z,7.88
2023-02-20T04:10:35.429Z,8.55
2023-02-20T04:13:02.317Z,7.80
2023-02-20T04:15:29.327Z,8.77
2023-02-20T04:18:04.703Z,9.75
2023-02-20T04:20:31.479Z,9.88
2023-02-20T04:23:17.101Z,8.38
2023-02-20T04:25:46.940Z,8.65
2023-02-20T04:28:14.121Z,8.65
2023-02-20T04:31:02.051Z,9.52
2023-02-20T04:33:30.208Z,9.57
2023-02-20T04:36:02.283Z,10.25
2023-02-20T04:38:28.720Z,8.60
2023-02-20T04:40:56.327Z,8.35
2023-02-20T04:43:22.840Z,9.45
2023-02-20T04:45:50.436Z,11.05
2023-02-20T04:48:17.877Z,8.55
2023-02-20T04:50:44.367Z,12.15
2023-02-20T04:53:12.170Z,9.55
2023-02-20T04:55:38.532Z,9.50
2023-02-20T04:58:09.774Z,10.52
2023-02-20T05:00:49.311Z,9.25
2023-02-20T05:03:15.762Z,9.90
2023-02-20T05:05:42.221Z,9.38
2023-02-20T05:08:08.980Z,8.80
2023-02-20T05:10:35.805Z,9.57
2023-02-20T05:13:02.364Z,9.38
2023-02-20T05:15:29.958Z,8.75
2023-02-20T05:20:43.065Z,8.88
2023-02-20T05:23:09.490Z,12.02
2023-02-20T05:25:36.002Z,9.07
2023-02-20T05:28:02.456Z,8.70
2023-02-20T05:30:28.853Z,8.45
2023-02-20T05:32:55.331Z,10.45
2023-02-20T05:35:21.741Z,9.77
2023-02-20T05:37:48.183Z,8.70
2023-02-20T05:40:14.904Z,9.43
2023-02-20T05:42:41.447Z,9.27
2023-02-20T05:45:09.098Z,9.23
2023-02-20T05:50:01.833Z,7.93
2023-02-20T05:52:28.232Z,8.38
2023-02-20T05:54:54.611Z,7.95
2023-02-20T05:57:21.026Z,7.40
2023-02-20T05:59:47.399Z,7.60
2023-02-20T06:02:13.819Z,7.88
2023-02-20T06:04:40.349Z,7.85
2023-02-20T06:07:09.289Z,7.10
2023-02-20T06:09:35.740Z,6.40
2023-02-20T06:12:02.394Z,7.32
2023-02-20T06:14:28.920Z,6.45
2023-02-20T06:16:56.735Z,6.72
2023-02-20T06:19:24.004Z,7.07
2023-02-20T06:21:53.878Z,6.32
2023-02-20T06:24:20.478Z,7.07
2023-02-20T06:26:46.937Z,6.00
2023-02-20T06:29:14.522Z,6.18
2023-02-20T06:31:41.164Z,5.50
2023-02-20T06:34:08.116Z,6.28
2023-02-20T06:36:35.936Z,6.55
2023-02-20T06:39:02.982Z,6.82
2023-02-20T06:41:29.388Z,5.90
2023-02-20T06:43:55.775Z,6.30
2023-02-20T06:46:25.785Z,5.40
2023-02-20T06:48:53.841Z,6.53
2023-02-20T06:51:21.372Z,6.25
2023-02-20T06:53:47.914Z,5.68
2023-02-20T06:56:15.776Z,6.38
2023-02-20T06:58:42.116Z,5.20
2023-02-20T07:01:08.601Z,6.15
2023-02-20T07:03:35.096Z,5.80
2023-02-20T07:06:01.429Z,5.53
2023-02-20T07:08:28.077Z,6.30
2023-02-20T07:10:55.277Z,5.85
2023-02-20T07:13:22.337Z,4.95
2023-02-20T07:15:49.408Z,5.15
2023-02-20T07:18:17.229Z,4.65
2023-02-20T07:20:44.048Z,5.30
2023-02-20T07:23:10.541Z,4.90
2023-02-20T07:25:37.003Z,5.20
2023-02-20T07:28:03.602Z,5.15
2023-02-20T07:30:30.053Z,5.47
2023-02-20T07:32:56.625Z,5.32
2023-02-20T07:35:22.980Z,5.28
2023-02-20T07:37:49.374Z,5.40
2023-02-20T07:40:15.804Z,5.63
2023-02-20T07:42:42.180Z,5.40
2023-02-20T07:45:23.637Z,5.00
2023-02-20T07:47:50.053Z,4.95
2023-02-20T07:50:16.547Z,5.15
2023-02-20T07:52:43.238Z,4.40
2023-02-20T07:55:09.624Z,5.25
2023-02-20T07:57:37.078Z,4.57
2023-02-20T08:00:04.433Z,4.40
2023-02-20T08:02:38.565Z,4.57
2023-02-20T08:05:05.456Z,4.55
2023-02-20T08:07:31.864Z,5.00
2023-02-20T08:09:58.309Z,4.80
2023-02-20T08:12:24.723Z,4.72
2023-02-20T08:14:51.851Z,4.35
2023-02-20T08:17:18.300Z,3.97
2023-02-20T08:19:44.979Z,4.40
2023-02-20T08:22:11.453Z,4.75
2023-02-20T08:24:37.892Z,4.63
2023-02-20T08:27:04.797Z,4.38
2023-02-20T08:29:31.173Z,4.85
2023-02-20T08:31:57.729Z,4.50
2023-02-20T08:34:24.150Z,4.75
2023-02-20T08:36:50.504Z,4.40
2023-02-20T08:39:16.875Z,5.07
2023-02-20T08:41:46.786Z,4.32
2023-02-20T08:44:13.846Z,5.10
2023-02-20T08:46:47.535Z,4.60
2023-02-20T08:49:13.997Z,4.97
2023-02-20T08:51:40.448Z,4.80
2023-02-20T08:54:06.963Z,5.18
2023-02-20T08:56:33.383Z,5.03
2023-02-20T08:58:59.756Z,5.07
2023-02-20T09:01:26.279Z,4.90
2023-02-20T09:03:52.693Z,6.03
2023-02-20T09:06:19.097Z,5.50
2023-02-20T09:08:45.537Z,5.00
2023-02-20T09:11:12.125Z,5.53
2023-02-20T09:13:43.452Z,5.53
2023-02-20T09:16:09.906Z,5.70
2023-02-20T09:18:36.404Z,5.68
2023-02-20T09:21:02.834Z,5.50
2023-02-20T09:23:29.229Z,5.00
2023-02-20T09:25:55.612Z,5.43
2023-02-20T09:28:22.055Z,5.70
2023-02-20T09:30:48.490Z,5.47
2023-02-20T09:33:14.886Z,6.28
2023-02-20T09:35:41.310Z,6.13
2023-02-20T09:38:07.864Z,5.63
2023-02-20T09:40:34.295Z,5.68
2023-02-20T09:43:13.587Z,6.28
2023-02-20T09:45:43.078Z,5.93
2023-02-20T09:48:10.320Z,6.35
2023-02-20T09:50:36.682Z,6.53
2023-02-20T09:53:11.199Z,7.18
2023-02-20T09:55:40.344Z,6.47
2023-02-20T09:58:07.248Z,6.80
2023-02-20T10:00:35.615Z,6.43
2023-02-20T10:03:18.641Z,6.35
2023-02-20T10:05:46.339Z,6.50
2023-02-20T10:08:17.303Z,6.60
2023-02-20T10:10:43.951Z,6.93
2023-02-20T10:13:29.102Z,6.70
2023-02-20T10:15:59.710Z,6.40
2023-02-20T10:18:42.893Z,7.38
2023-02-20T10:21:25.227Z,6.38
2023-02-20T10:24:05.087Z,6.07
2023-02-20T10:26:37.257Z,6.65
2023-02-20T10:29:14.942Z,5.68
2023-02-20T10:31:43.850Z,6.22
2023-02-20T10:34:12.792Z,6.15
2023-02-20T10:36:44.649Z,6.22
2023-02-20T10:39:13.362Z,6.07
2023-02-20T10:41:45.634Z,5.45
2023-02-20T10:44:19.668Z,5.65
2023-02-20T10:46:51.556Z,6.03
2023-02-20T10:49:44.152Z,6.07
2023-02-20T10:52:25.699Z,6.05
2023-02-20T10:55:16.537Z,6.82
2023-02-20T10:57:42.942Z,6.45
2023-02-20T11:00:11.220Z,6.10
2023-02-20T11:02:41.581Z,6.03
2023-02-20T11:05:10.312Z,6.25
2023-02-20T11:07:36.904Z,5.60
2023-02-20T11:10:04.360Z,3.45
2023-02-20T11:12:34.337Z,2.85
2023-02-20T11:15:05.422Z,2.65
2023-02-20T11:17:32.728Z,2.80
2023-02-20T11:22:46.688Z,3.00
2023-02-20T11:25:17.965Z,2.60
2023-02-20T11:27:49.826Z,2.90
2023-02-20T11:30:22.076Z,3.15
2023-02-20T11:32:49.375Z,3.00
2023-02-20T11:37:54.117Z,2.50
2023-02-20T11:42:47.842Z,2.60
2023-02-20T11:45:22.189Z,2.50
2023-02-20T11:48:06.201Z,2.90
2023-02-20T11:50:40.108Z,2.53
2023-02-20T11:53:07.950Z,2.85
2023-02-20T11:55:34.941Z,2.67
2023-02-20T11:58:02.361Z,2.83
2023-02-20T12:00:34.486Z,2.80
2023-02-20T12:03:09.822Z,2.97
2023-02-20T12:05:46.186Z,2.92
2023-02-20T12:08:31.469Z,2.95
2023-02-20T12:11:01.088Z,2.60
2023-02-20T12:13:27.718Z,2.95
2023-02-20T12:16:04.255Z,3.05
2023-02-20T12:18:30.707Z,3.13
2023-02-20T12:21:02.073Z,2.70
2023-02-20T12:23:37.733Z,2.85
2023-02-20T12:26:04.112Z,2.88
2023-02-20T12:28:36.361Z,2.75
2023-02-20T12:31:08.008Z,2.80
2023-02-20T12:33:40.536Z,3.00
2023-02-20T12:36:28.940Z,2.88
2023-02-20T12:39:18.728Z,2.67
2023-02-20T12:41:45.091Z,2.85
2023-02-20T12:44:17.648Z,2.97
2023-02-20T12:46:53.274Z,2.92
2023-02-20T12:49:20.406Z,3.03
2023-02-20T12:51:56.132Z,3.20
2023-02-20T12:54:25.295Z,2.90
2023-02-20T12:56:54.879Z,3.00
2023-02-20T12:59:53.539Z,2.95
2023-02-20T13:02:42.338Z,2.83
2023-02-20T13:05:12.382Z,3.10
2023-02-20T13:07:52.513Z,3.10
2023-02-20T13:10:18.892Z,2.72
2023-02-20T13:12:45.458Z,3.10
2023-02-20T13:15:33.320Z,3.20
2023-02-20T13:18:12.658Z,3.00
2023-02-20T13:20:46.833Z,2.60
2023-02-20T13:23:16.149Z,2.80
2023-02-20T13:25:49.487Z,2.92
2023-02-20T13:28:34.685Z,3.10
2023-02-20T13:31:07.152Z,2.90
2023-02-20T13:33:36.290Z,3.00
2023-02-20T13:36:03.503Z,2.78
2023-02-20T13:38:30.050Z,3.20
2023-02-20T13:40:59.572Z,3.03
2023-02-20T13:43:28.044Z,2.63
2023-02-20T13:46:00.757Z,3.40
2023-02-20T13:48:30.191Z,3.05
2023-02-20T13:51:14.652Z,3.70
2023-02-20T13:53:44.489Z,3.53
2023-02-20T13:56:17.023Z,2.97
2023-02-20T13:58:44.818Z,3.53
2023-02-20T14:01:11.403Z,3.10
2023-02-20T14:03:37.769Z,3.08
2023-02-20T14:06:06.111Z,3.60
2023-02-20T14:08:32.615Z,3.40
2023-02-20T14:11:04.370Z,3.20
2023-02-20T14:13:39.641Z,3.10
2023-02-20T14:16:23.934Z,3.00
2023-02-20T14:18:50.636Z,3.45
2023-02-20T14:21:19.168Z,3.42
2023-02-20T14:23:46.449Z,3.70
2023-02-20T14:26:23.586Z,3.38
2023-02-20T14:28:51.959Z,3.10
2023-02-20T14:31:21.263Z,3.10
2023-02-20T14:33:48.613Z,3.33
2023-02-20T14:38:49.924Z,3.10
2023-02-20T14:41:20.691Z,3.10
2023-02-20T14:43:57.244Z,3.40
2023-02-20T14:46:25.562Z,2.95
2023-02-20T14:49:03.327Z,3.00
2023-02-20T14:51:29.686Z,3.25
2023-02-20T14:54:03.866Z,3.47
2023-02-20T14:56:33.981Z,3.30
2023-02-20T14:59:15.513Z,3.60
2023-02-20T15:01:42.045Z,3.45
2023-02-20T15:04:18.508Z,3.70
2023-02-20T15:06:46.665Z,3.47
2023-02-20T15:09:22.463Z,3.70
2023-02-20T15:11:50.996Z,3.60
2023-02-20T15:14:25.426Z,3.90
2023-02-20T15:17:08.317Z,4.05
2023-02-20T15:19:38.285Z,3.67
2023-02-20T15:22:05.032Z,3.72
2023-02-20T15:24:38.578Z,3.60
2023-02-20T15:27:08.996Z,3.83
2023-02-20T15:29:35.731Z,4.07
2023-02-20T15:32:03.736Z,4.10
2023-02-20T15:34:31.725Z,3.80
2023-02-20T15:36:59.293Z,3.78
2023-02-20T15:39:25.760Z,4.13
2023-02-20T15:44:19.965Z,3.80
2023-02-20T15:46:46.492Z,3.40
2023-02-20T15:49:20.443Z,4.30
2023-02-20T15:51:47.553Z,3.80
2023-02-20T15:54:16.954Z,4.07
2023-02-20T15:56:43.562Z,4.10
2023-02-20T15:59:12.150Z,4.43
2023-02-20T16:01:39.006Z,4.32
2023-02-20T16:04:06.690Z,4.00
2023-02-20T16:06:33.128Z,4.05
2023-02-20T16:08:59.488Z,4.10
2023-02-20T16:11:28.352Z,4.03
2023-02-20T16:13:56.293Z,4.15
2023-02-20T16:16:28.092Z,4.18
2023-02-20T16:18:55.211Z,4.15
2023-02-20T16:21:22.893Z,3.80
2023-02-20T16:23:50.230Z,4.00
2023-02-20T16:28:43.180Z,3.50
2023-02-20T16:31:11.836Z,3.88
2023-02-20T16:33:38.438Z,3.78
2023-02-20T16:36:05.513Z,3.92
2023-02-20T16:38:33.394Z,4.25
2023-02-20T16:41:03.380Z,4.10
2023-02-20T16:43:30.677Z,3.90
2023-02-20T16:45:57.066Z,4.32
2023-02-20T16:48:23.479Z,4.50
2023-02-20T16:50:53.061Z,4.50
2023-02-20T16:53:20.035Z,4.32
2023-02-20T16:55:47.281Z,4.22
2023-02-20T16:58:14.163Z,4.00
2023-02-20T17:00:55.169Z,4.60
2023-02-20T17:03:23.674Z,4.60
2023-02-20T17:05:50.149Z,4.70
2023-02-20T17:08:16.568Z,3.95
2023-02-20T17:10:42.974Z,4.47
2023-02-20T17:13:09.689Z,4.90
2023-02-20T17:15:37.661Z,4.60
2023-02-20T17:18:04.731Z,4.60
2023-02-20T17:20:31.363Z,4.75
2023-02-20T17:23:04.718Z,4.60
2023-02-20T17:25:32.106Z,4.40
2023-02-20T17:27:58.566Z,4.20
2023-02-20T17:30:25.063Z,4.57
2023-02-20T17:32:51.852Z,4.53
2023-02-20T17:35:18.678Z,4.80
2023-02-20T17:37:45.056Z,4.72
2023-02-20T17:40:12.111Z,4.75
2023-02-20T17:42:38.496Z,4.53
2023-02-20T17:45:05.164Z,4.53
2023-02-20T17:47:33.085Z,4.40
2023-02-20T17:49:59.501Z,4.47
2023-02-20T17:52:25.864Z,3.72
2023-02-20T17:54:52.747Z,4.43
2023-02-20T17:57:19.355Z,4.18
2023-02-20T17:59:46.503Z,4.55
2023-02-20T18:02:14.782Z,4.07
2023-02-20T18:04:41.602Z,4.60
2023-02-20T18:07:08.638Z,4.57
2023-02-20T18:09:35.113Z,4.60
2023-02-20T18:12:02.133Z,4.80
2023-02-20T18:14:29.579Z,4.50
2023-02-20T18:16:56.223Z,4.78
2023-02-20T18:19:24.681Z,4.60
2023-02-20T18:21:52.656Z,4.78
2023-02-20T18:24:22.926Z,5.20
2023-02-20T18:26:50.551Z,4.72
2023-02-20T18:29:17.012Z,4.75
2023-02-20T18:31:43.602Z,5.03
2023-02-20T18:34:10.173Z,4.57
2023-02-20T18:36:37.859Z,5.00
2023-02-20T18:39:05.301Z,4.68
2023-02-20T18:43:58.007Z,4.32
2023-02-20T18:46:25.283Z,4.55
2023-02-20T18:48:51.735Z,4.07
2023-02-20T18:51:18.162Z,4.18
2023-02-20T18:53:45.011Z,4.07
2023-02-20T18:56:13.213Z,4.15
2023-02-20T18:58:39.978Z,4.30
2023-02-20T19:01:06.642Z,4.20
2023-02-20T19:03:33.139Z,4.30
2023-02-20T19:06:00.806Z,4.43
2023-02-20T19:08:27.156Z,4.45
2023-02-20T19:10:53.527Z,3.92
2023-02-20T19:13:19.887Z,4.25
2023-02-20T19:15:46.232Z,4.07
2023-02-20T19:18:12.628Z,4.18
2023-02-20T19:20:39.052Z,4.05
2023-02-20T19:23:05.599Z,3.85
2023-02-20T19:25:32.112Z,4.20
2023-02-20T19:27:58.596Z,3.63
2023-02-20T19:30:25.078Z,3.90
2023-02-20T19:32:51.542Z,4.03
2023-02-20T19:35:18.141Z,3.92
2023-02-20T19:37:44.609Z,3.53
2023-02-20T19:40:11.125Z,3.50
2023-02-20T19:42:39.218Z,3.72
2023-02-20T19:45:05.940Z,3.90
2023-02-20T19:47:32.360Z,3.45
2023-02-20T19:49:58.800Z,3.50
2023-02-20T19:52:25.746Z,3.85
2023-02-20T19:54:52.160Z,3.80
2023-02-20T19:57:18.649Z,4.22
2023-02-20T19:59:44.992Z,3.72
2023-02-20T20:02:12.859Z,3.70
2023-02-20T20:04:39.452Z,3.80
2023-02-20T20:07:05.931Z,4.07
2023-02-20T20:09:37.451Z,3.90
2023-02-20T20:12:04.859Z,3.55
2023-02-20T20:14:31.267Z,4.00
2023-02-20T20:16:57.713Z,4.07
2023-02-20T20:19:24.230Z,3.70
2023-02-20T20:21:50.715Z,3.72
2023-02-20T20:24:17.268Z,3.85
2023-02-20T20:26:43.887Z,4.57
2023-02-20T20:29:10.476Z,4.25
2023-02-20T20:31:38.773Z,3.78
2023-02-20T20:34:05.962Z,4.43
2023-02-20T20:36:32.700Z,4.30
2023-02-20T20:38:59.191Z,4.70
2023-02-20T20:41:26.643Z,4.68
2023-02-20T20:43:56.000Z,4.60
2023-02-20T20:46:22.427Z,4.60
2023-02-20T20:48:48.882Z,4.40
2023-02-20T20:51:17.250Z,4.70
2023-02-20T20:53:44.648Z,4.50
2023-02-20T20:58:37.603Z,4.53
2023-02-20T21:01:04.063Z,4.80
2023-02-20T21:03:30.445Z,4.82
2023-02-20T21:05:56.826Z,4.75
2023-02-20T21:08:23.186Z,5.28
2023-02-20T21:10:49.557Z,5.53
2023-02-20T21:13:15.968Z,4.88
2023-02-20T21:15:42.466Z,5.55
2023-02-20T21:18:08.935Z,5.38
2023-02-20T21:20:36.203Z,5.97
2023-02-20T21:25:31.262Z,5.50
2023-02-20T21:27:58.108Z,5.43
2023-02-20T21:30:25.532Z,5.13
2023-02-20T21:35:20.524Z,5.80
2023-02-20T21:37:47.501Z,5.55
2023-02-20T21:40:14.078Z,5.43
2023-02-20T21:43:00.748Z,5.75
2023-02-20T21:45:27.309Z,5.53
2023-02-20T21:47:53.684Z,6.20
2023-02-20T21:50:20.083Z,5.75
2023-02-20T21:52:46.616Z,5.43
2023-02-20T21:55:14.576Z,6.15
2023-02-20T21:57:41.140Z,5.90
2023-02-20T22:00:09.328Z,5.50
2023-02-20T22:02:37.045Z,5.60
2023-02-20T22:05:03.974Z,5.63
2023-02-20T22:07:48.964Z,5.05
2023-02-20T22:10:34.047Z,5.60
2023-02-20T22:13:18.831Z,5.22
2023-02-20T22:16:03.806Z,5.50
2023-02-20T22:18:48.723Z,5.15
2023-02-20T22:21:37.415Z,5.15
2023-02-20T22:24:30.592Z,4.70
2023-02-20T22:27:22.123Z,5.03
2023-02-20T22:30:07.023Z,5.45
2023-02-20T22:32:52.004Z,5.50
2023-02-20T22:35:36.992Z,5.50
2023-02-20T22:38:22.192Z,5.40
2023-02-20T22:41:07.034Z,5.00
2023-02-20T22:43:52.238Z,5.53
2023-02-20T22:46:40.722Z,5.95
2023-02-20T22:49:25.984Z,5.55
2023-02-20T22:52:11.118Z,5.68
2023-02-20T22:55:04.283Z,5.43
2023-02-20T22:57:49.935Z,4.97
2023-02-20T23:00:34.978Z,5.07
2023-02-20T23:03:21.104Z,5.00
2023-02-20T23:06:17.030Z,4.80
2023-02-20T23:09:03.450Z,4.75
2023-02-20T23:11:50.791Z,4.88
2023-02-20T23:14:36.083Z,4.93
2023-02-20T23:17:34.377Z,6.43
2023-02-20T23:20:22.074Z,10.88
2023-02-20T23:23:07.066Z,11.40
2023-02-20T23:25:52.002Z,11.50
2023-02-20T23:28:37.657Z,11.48
2023-02-20T23:34:07.643Z,12.10
2023-02-20T23:36:52.362Z,10.05
2023-02-20T23:39:37.704Z,10.07
2023-02-20T23:42:22.480Z,9.63
2023-02-20T23:45:07.422Z,10.25
2023-02-20T23:47:52.694Z,10.10
2023-02-20T23:50:37.545Z,9.82
2023-02-20T23:53:22.869Z,9.95
2023-02-20T23:56:07.929Z,10.57
2023-02-20T23:58:53.032Z,10.52
